Time;durP1;ratioP1;P1;durP2;ratioP2;P2;SDS_P1;SDS_P2;PMS_P1;PMS_P2;Temp;Humidity;BMP_temperature;BMP_pressure;BME280_temperature;BME280_humidity;BME280_pressure;Samples;Min_cycle;Max_cycle;Signal;HPM_P1;HPM_P2
2021/11/09 00:02:10;;;;;;;38.08;22.52;;;5.40;91.00;;;;;;5008509;28;20482;-72
2021/11/09 00:04:41;;;;;;;42.78;25.10;;;5.40;91.00;;;;;;5011325;28;20093;-72
2021/11/09 00:09:56;;;;;;;47.13;24.10;;;5.40;91.10;;;;;;5007460;28;20058;-73
2021/11/09 00:12:22;;;;;;;39.80;22.63;;;5.50;91.10;;;;;;5013023;28;20038;-73
2021/11/09 00:14:48;;;;;;;39.65;22.23;;;5.60;91.10;;;;;;5025457;28;20034;-73
2021/11/09 00:17:15;;;;;;;39.60;21.67;;;5.60;91.10;;;;;;5010226;28;20449;-71
2021/11/09 00:19:41;;;;;;;39.53;22.05;;;5.60;91.10;;;;;;5007949;28;20485;-71
2021/11/09 00:22:06;;;;;;;33.72;21.90;;;5.60;91.10;;;;;;5029524;28;20037;-72
2021/11/09 00:24:32;;;;;;;36.58;22.65;;;5.50;91.10;;;;;;5008928;28;20461;-72
2021/11/09 00:26:58;;;;;;;35.28;21.65;;;5.50;91.20;;;;;;5006404;28;20192;-71
2021/11/09 00:29:23;;;;;;;31.38;20.92;;;5.40;91.30;;;;;;5010766;28;20038;-73
2021/11/09 00:31:49;;;;;;;33.03;21.40;;;5.40;91.20;;;;;;5008291;28;20056;-71
2021/11/09 00:34:14;;;;;;;42.85;24.27;;;5.40;91.20;;;;;;5011054;28;20429;-72
2021/11/09 00:36:40;;;;;;;40.13;22.95;;;5.40;91.20;;;;;;5010080;28;20401;-73
2021/11/09 00:39:08;;;;;;;33.25;21.10;;;5.30;91.30;;;;;;5010477;28;20046;-72
2021/11/09 00:41:34;;;;;;;37.33;21.55;;;5.30;91.30;;;;;;5007511;28;20033;-73
2021/11/09 00:44:00;;;;;;;34.75;22.17;;;5.30;91.30;;;;;;5010514;28;20037;-72
2021/11/09 00:46:25;;;;;;;39.97;21.70;;;5.30;91.30;;;;;;5007685;28;20038;-73
2021/11/09 00:48:51;;;;;;;39.45;22.30;;;5.30;91.30;;;;;;5005947;28;20053;-71
2021/11/09 00:51:17;;;;;;;32.95;19.88;;;5.20;91.30;;;;;;5003572;28;20408;-70
2021/11/09 00:53:42;;;;;;;40.88;21.30;;;5.20;91.30;;;;;;5009057;28;20511;-70
2021/11/09 00:56:09;;;;;;;37.70;21.63;;;5.20;91.30;;;;;;5016632;28;20381;-70
2021/11/09 00:58:35;;;;;;;39.38;21.58;;;5.20;91.40;;;;;;5007736;28;20497;-69
2021/11/09 01:01:01;;;;;;;35.30;20.10;;;5.40;91.40;;;;;;5009025;28;20033;-71
2021/11/09 01:03:27;;;;;;;39.08;20.75;;;5.30;91.40;;;;;;5006713;28;20389;-69
2021/11/09 01:05:53;;;;;;;36.58;20.13;;;5.30;91.40;;;;;;5009281;28;20026;-70
2021/11/09 01:08:19;;;;;;;34.38;20.52;;;5.30;91.50;;;;;;5009248;28;20038;-70
2021/11/09 01:10:51;;;;;;;35.97;19.90;;;5.40;91.50;;;;;;5010861;28;20038;-70
2021/11/09 01:13:20;;;;;;;40.05;21.17;;;5.30;91.50;;;;;;5006360;28;20038;-70
2021/11/09 01:15:49;;;;;;;38.58;19.55;;;5.30;91.50;;;;;;5025146;28;20034;-70
2021/11/09 01:18:44;;;;;;;41.60;21.98;;;5.30;91.60;;;;;;5011155;28;20480;-71
2021/11/09 01:21:13;;;;;;;40.47;21.30;;;5.30;91.60;;;;;;5006875;28;20495;-70
2021/11/09 01:23:40;;;;;;;38.47;20.23;;;5.40;91.70;;;;;;5009405;28;20408;-72
2021/11/09 01:26:07;;;;;;;37.70;20.92;;;5.40;91.60;;;;;;5009565;28;20170;-70
2021/11/09 01:28:33;;;;;;;40.83;23.05;;;5.40;91.80;;;;;;5018065;28;20385;-70
2021/11/09 01:30:59;;;;;;;41.75;21.85;;;5.40;91.80;;;;;;5012790;28;20042;-71
2021/11/09 01:33:26;;;;;;;40.95;21.58;;;5.50;91.80;;;;;;5007546;28;20038;-70
2021/11/09 01:35:52;;;;;;;36.35;20.10;;;5.50;91.80;;;;;;5010453;28;20038;-70
2021/11/09 01:38:18;;;;;;;34.28;18.85;;;5.40;91.70;;;;;;5006365;28;20052;-70
2021/11/09 01:40:45;;;;;;;36.10;19.17;;;5.40;91.70;;;;;;5010158;28;20041;-70
2021/11/09 01:43:13;;;;;;;33.92;20.42;;;5.30;91.70;;;;;;5006700;28;20046;-74
2021/11/09 01:45:38;;;;;;;33.83;20.67;;;5.40;91.80;;;;;;5007748;28;20381;-69
2021/11/09 01:48:05;;;;;;;36.70;20.73;;;5.40;91.90;;;;;;5007259;28;20205;-69
2021/11/09 01:50:35;;;;;;;38.45;20.65;;;5.40;91.80;;;;;;5007704;28;20030;-71
2021/11/09 01:53:02;;;;;;;38.80;20.90;;;5.30;91.80;;;;;;5010517;28;20041;-73
2021/11/09 01:55:28;;;;;;;29.88;19.30;;;5.40;91.90;;;;;;5006989;28;20049;-70
2021/11/09 01:57:56;;;;;;;33.97;20.42;;;5.40;91.90;;;;;;5010257;28;20042;-71
2021/11/09 02:00:28;;;;;;;34.38;19.10;;;5.40;92.00;;;;;;5011820;28;20526;-70
2021/11/09 02:02:54;;;;;;;36.60;19.02;;;5.40;92.10;;;;;;5006612;28;20092;-70
2021/11/09 02:05:21;;;;;;;35.60;19.15;;;5.50;92.20;;;;;;5007144;28;20045;-70
2021/11/09 02:07:50;;;;;;;34.55;19.58;;;5.50;92.20;;;;;;5004875;28;20056;-70
2021/11/09 02:10:17;;;;;;;37.88;19.52;;;5.60;92.20;;;;;;5027151;28;20398;-71
2021/11/09 02:12:44;;;;;;;33.95;18.95;;;5.60;92.20;;;;;;5008509;28;20054;-72
2021/11/09 02:15:11;;;;;;;37.25;20.25;;;5.60;92.20;;;;;;5006099;28;20506;-69
2021/11/09 02:17:39;;;;;;;38.75;19.90;;;5.60;92.10;;;;;;5008444;28;20042;-70
2021/11/09 02:20:07;;;;;;;40.13;20.35;;;5.60;92.10;;;;;;5020774;28;20053;-71
2021/11/09 02:22:34;;;;;;;36.60;20.20;;;5.60;92.00;;;;;;5009270;28;20053;-70
2021/11/09 02:25:06;;;;;;;40.90;20.90;;;5.60;92.00;;;;;;5006510;28;20049;-71
2021/11/09 02:27:32;;;;;;;35.35;20.52;;;5.60;92.00;;;;;;5004388;28;20872;-71
2021/11/09 02:29:58;;;;;;;35.53;19.45;;;5.50;92.00;;;;;;5006862;28;20026;-70
2021/11/09 02:32:24;;;;;;;38.83;19.38;;;5.40;92.10;;;;;;5005391;28;20042;-70
2021/11/09 02:34:49;;;;;;;36.05;20.15;;;5.50;92.20;;;;;;5006364;28;20124;-71
2021/11/09 02:37:16;;;;;;;39.30;18.95;;;5.50;92.20;;;;;;5003149;28;20126;-71
2021/11/09 02:39:42;;;;;;;34.35;19.85;;;5.50;92.10;;;;;;5007109;28;20397;-70
2021/11/09 02:42:15;;;;;;;35.08;20.08;;;5.50;92.20;;;;;;5021419;28;20034;-72
2021/11/09 02:44:53;;;;;;;38.97;19.02;;;5.50;92.20;;;;;;5004922;28;20043;-70
2021/11/09 02:47:22;;;;;;;37.65;19.42;;;5.50;92.20;;;;;;5004579;28;20096;-71
2021/11/09 02:52:16;;;;;;;39.75;20.10;;;5.40;92.20;;;;;;5006229;28;20046;-71
2021/11/09 02:54:45;;;;;;;33.40;19.23;;;5.30;92.20;;;;;;5008398;28;20097;-72
2021/11/09 02:57:27;;;;;;;37.67;19.75;;;5.30;92.30;;;;;;5006210;28;20042;-71
2021/11/09 03:00:15;;;;;;;41.30;20.15;;;5.40;92.40;;;;;;5006647;28;20030;-71
2021/11/09 03:02:51;;;;;;;36.72;20.77;;;5.30;92.30;;;;;;5003051;28;20523;-71
2021/11/09 03:06:14;;;;;;;36.70;19.63;;;5.30;92.30;;;;;;5003149;28;20034;-71
2021/11/09 03:08:30;;;;;;;38.38;19.60;;;5.30;92.30;;;;;;5003068;28;20046;-71
2021/11/09 03:10:56;;;;;;;37.33;20.17;;;5.30;92.20;;;;;;5003470;28;20505;-70
2021/11/09 03:13:23;;;;;;;43.88;23.20;;;5.30;92.30;;;;;;5005525;28;20432;-72
2021/11/09 03:15:54;;;;;;;39.55;20.77;;;5.30;92.30;;;;;;5005890;28;20026;-71
2021/11/09 03:18:24;;;;;;;33.28;20.25;;;5.30;92.30;;;;;;5006168;28;20034;-71
2021/11/09 03:40:07;;;;;;;41.70;20.27;;;5.60;92.30;;;;;;5010521;28;20093;-71
2021/11/09 03:45:26;;;;;;;35.15;18.90;;;5.80;92.30;;;;;;5018777;28;20061;-70
2021/11/09 03:47:55;;;;;;;32.97;18.83;;;5.90;92.20;;;;;;5009393;28;20385;-70
2021/11/09 03:50:24;;;;;;;34.22;18.48;;;5.90;92.10;;;;;;5005068;28;20061;-70
2021/11/09 03:53:04;;;;;;;32.80;17.98;;;6.00;92.10;;;;;;5028563;28;20612;-72
2021/11/09 03:55:53;;;;;;;35.38;18.63;;;6.00;92.00;;;;;;5017395;28;20092;-70
2021/11/09 04:01:10;;;;;;;39.80;18.60;;;6.10;91.90;;;;;;5012272;28;20112;-70
2021/11/09 04:41:11;;;;;;;34.47;17.70;;;6.30;91.00;;;;;;5009661;28;20061;-70
2021/11/09 05:09:19;;;;;;;33.83;16.20;;;6.60;90.70;;;;;;5008758;28;20048;-72
2021/11/09 05:11:45;;;;;;;31.52;15.85;;;6.60;90.70;;;;;;5007462;28;20401;-72
2021/11/09 05:14:13;;;;;;;35.72;16.23;;;6.60;90.60;;;;;;5007849;28;20048;-71
2021/11/09 05:16:39;;;;;;;35.35;16.50;;;6.60;90.60;;;;;;5007835;28;20073;-71
2021/11/09 05:19:06;;;;;;;43.97;17.13;;;6.60;90.50;;;;;;5008144;28;20053;-71
2021/11/09 05:21:33;;;;;;;36.70;16.85;;;6.60;90.30;;;;;;5009058;28;20038;-71
2021/11/09 05:24:00;;;;;;;34.70;16.27;;;6.60;90.40;;;;;;5009166;28;20049;-70
2021/11/09 05:26:26;;;;;;;34.30;15.73;;;6.60;90.30;;;;;;5006835;28;20042;-71
2021/11/09 05:28:52;;;;;;;32.90;15.68;;;6.70;90.20;;;;;;5008552;28;20034;-70
2021/11/09 05:31:18;;;;;;;31.88;15.88;;;6.70;90.10;;;;;;5008268;28;20032;-70
2021/11/09 05:33:46;;;;;;;33.78;15.75;;;6.70;90.20;;;;;;5009005;28;20052;-71
2021/11/09 05:36:12;;;;;;;34.25;16.23;;;6.70;90.10;;;;;;5007884;28;20169;-71
2021/11/09 05:39:16;;;;;;;39.85;16.08;;;6.70;90.10;;;;;;5003097;28;20112;-71
2021/11/09 05:41:34;;;;;;;36.05;16.65;;;6.70;90.10;;;;;;5003585;28;20120;-70
2021/11/09 05:43:59;;;;;;;35.10;15.52;;;6.70;90.10;;;;;;5008088;28;20045;-70
2021/11/09 05:46:25;;;;;;;34.47;15.75;;;6.70;90.00;;;;;;5010235;28;20038;-70
2021/11/09 05:48:51;;;;;;;36.08;15.93;;;6.80;90.00;;;;;;5007005;28;20060;-70
2021/11/09 05:51:16;;;;;;;38.97;16.20;;;6.80;89.90;;;;;;5008438;28;20125;-70
2021/11/09 05:53:42;;;;;;;34.78;15.75;;;6.80;89.90;;;;;;5009832;28;20161;-69
2021/11/09 05:56:08;;;;;;;37.80;16.23;;;6.80;89.90;;;;;;5007034;28;20402;-70
2021/11/09 05:58:33;;;;;;;39.83;15.07;;;6.80;89.90;;;;;;5006055;28;20033;-71
2021/11/09 06:00:59;;;;;;;33.28;15.07;;;6.80;90.00;;;;;;5006849;28;20038;-71
2021/11/09 06:03:25;;;;;;;38.20;15.85;;;6.80;90.00;;;;;;5006562;28;20053;-71
2021/11/09 06:05:52;;;;;;;31.05;16.05;;;6.80;89.90;;;;;;5006692;28;20026;-72
2021/11/09 06:08:19;;;;;;;37.60;15.43;;;6.80;89.90;;;;;;5006791;28;20053;-71
2021/11/09 06:10:45;;;;;;;37.38;16.23;;;6.80;89.80;;;;;;5022614;28;20042;-72
2021/11/09 06:13:11;;;;;;;39.78;15.05;;;6.80;89.80;;;;;;5007333;28;20034;-72
2021/11/09 06:15:37;;;;;;;28.73;14.90;;;6.80;89.80;;;;;;5007523;28;20135;-71
2021/11/09 06:18:03;;;;;;;39.58;15.52;;;6.80;89.80;;;;;;5009715;28;20050;-73
2021/11/09 06:20:29;;;;;;;37.05;15.18;;;6.90;89.80;;;;;;5003369;28;20057;-71
2021/11/09 06:22:55;;;;;;;35.13;15.85;;;6.80;89.70;;;;;;5009005;28;20041;-72
2021/11/09 06:25:23;;;;;;;35.58;16.00;;;6.80;89.70;;;;;;5006514;28;20041;-71
2021/11/09 06:27:49;;;;;;;38.00;16.30;;;6.90;89.60;;;;;;5008358;28;20034;-71
2021/11/09 06:30:15;;;;;;;40.22;16.30;;;6.90;89.40;;;;;;5007836;28;20157;-71
2021/11/09 06:32:41;;;;;;;38.80;16.35;;;6.90;89.30;;;;;;5008316;28;20116;-70
2021/11/09 06:35:07;;;;;;;35.85;15.55;;;6.90;89.30;;;;;;5010170;28;20054;-72
2021/11/09 06:37:34;;;;;;;32.88;15.32;;;6.90;89.40;;;;;;5007503;28;20113;-72
2021/11/09 06:40:01;;;;;;;34.13;15.85;;;6.90;89.40;;;;;;5007985;28;20039;-70
2021/11/09 06:42:26;;;;;;;39.78;17.80;;;6.90;89.40;;;;;;5004285;28;20034;-69
2021/11/09 06:44:52;;;;;;;31.30;15.48;;;6.90;89.40;;;;;;5005835;28;20046;-69
2021/11/09 06:47:18;;;;;;;31.65;15.13;;;6.90;89.30;;;;;;5006189;28;20034;-69
2021/11/09 06:49:43;;;;;;;35.80;15.75;;;6.90;89.30;;;;;;5007958;28;20092;-69
2021/11/09 06:52:10;;;;;;;39.63;15.82;;;6.90;89.30;;;;;;5009289;28;20041;-70
2021/11/09 06:54:36;;;;;;;38.65;16.23;;;7.00;89.20;;;;;;5005874;28;20038;-73
2021/11/09 06:57:03;;;;;;;25.63;14.63;;;7.00;89.10;;;;;;5003677;28;20050;-69
2021/11/09 06:59:29;;;;;;;32.70;15.50;;;7.00;89.20;;;;;;5006393;28;20038;-70
2021/11/09 07:01:55;;;;;;;38.47;15.95;;;7.00;89.30;;;;;;5009415;28;20362;-71
2021/11/09 07:04:21;;;;;;;34.95;14.43;;;7.00;89.20;;;;;;5006941;28;20413;-70
2021/11/09 07:06:46;;;;;;;29.35;14.05;;;7.00;89.10;;;;;;5006445;28;20120;-69
2021/11/09 07:09:13;;;;;;;33.75;15.27;;;7.10;89.00;;;;;;5007303;28;20042;-69
2021/11/09 07:11:39;;;;;;;33.35;15.27;;;7.00;88.70;;;;;;5009603;28;20096;-69
2021/11/09 07:14:06;;;;;;;29.27;14.10;;;7.00;88.70;;;;;;5008933;28;20084;-69
2021/11/09 07:16:32;;;;;;;31.23;14.30;;;7.10;88.60;;;;;;5007379;28;20034;-70
2021/11/09 07:19:03;;;;;;;39.42;15.45;;;7.10;88.50;;;;;;5005658;28;20425;-73
2021/11/09 07:21:30;;;;;;;30.15;14.70;;;7.10;88.60;;;;;;5005004;28;20120;-69
2021/11/09 07:23:56;;;;;;;31.80;13.60;;;7.10;88.60;;;;;;5013897;28;20033;-68
2021/11/09 07:26:23;;;;;;;30.58;13.93;;;7.10;88.30;;;;;;5005365;28;20566;-70
2021/11/09 07:28:49;;;;;;;34.03;14.13;;;7.10;88.10;;;;;;5005929;28;20045;-69
2021/11/09 07:31:17;;;;;;;32.47;14.13;;;7.10;88.20;;;;;;5004145;28;20046;-69
2021/11/09 07:33:43;;;;;;;28.73;12.77;;;7.20;88.10;;;;;;5004641;28;20045;-72
2021/11/09 07:36:09;;;;;;;36.63;14.93;;;7.30;88.00;;;;;;5007602;28;20077;-69
2021/11/09 07:38:35;;;;;;;31.98;14.45;;;7.30;87.80;;;;;;5005910;28;20072;-69
2021/11/09 07:41:00;;;;;;;28.67;13.73;;;7.30;87.60;;;;;;5006118;28;20042;-69
2021/11/09 07:43:26;;;;;;;27.27;13.98;;;7.40;87.80;;;;;;5001509;28;20116;-70
2021/11/09 07:45:52;;;;;;;32.75;13.68;;;7.40;87.30;;;;;;5007664;28;20037;-69
2021/11/09 07:48:17;;;;;;;26.58;13.35;;;7.50;87.30;;;;;;5006250;28;20023;-72
2021/11/09 07:50:43;;;;;;;34.70;14.30;;;7.50;87.20;;;;;;5009231;28;20188;-70
2021/11/09 07:53:15;;;;;;;31.60;14.10;;;7.50;87.10;;;;;;5005087;28;20029;-69
2021/11/09 07:55:54;;;;;;;30.05;12.90;;;7.40;87.10;;;;;;5011833;28;20050;-68
2021/11/09 07:58:30;;;;;;;30.08;14.50;;;7.50;87.10;;;;;;5007527;28;20133;-71
2021/11/09 08:01:06;;;;;;;30.45;13.52;;;7.40;87.10;;;;;;5001728;28;20282;-69
2021/11/09 08:03:40;;;;;;;31.98;12.38;;;7.40;87.20;;;;;;5003560;28;20069;-69
2021/11/09 08:06:15;;;;;;;33.33;13.32;;;7.40;87.20;;;;;;5003271;28;20038;-68
2021/11/09 08:08:53;;;;;;;;;;;7.40;87.10;;;;;;5007207;28;20402;-67
2021/11/09 08:11:20;;;;;;;28.67;13.13;;;7.50;87.10;;;;;;5005574;28;19960;-68
2021/11/09 08:13:46;;;;;;;30.73;13.35;;;7.50;87.10;;;;;;5004784;28;20037;-68
2021/11/09 08:16:11;;;;;;;39.40;14.05;;;7.50;87.00;;;;;;5006178;28;20038;-69
2021/11/09 08:18:37;;;;;;;29.88;12.60;;;7.60;86.90;;;;;;5004669;28;20045;-67
2021/11/09 08:21:04;;;;;;;26.08;13.25;;;7.60;86.90;;;;;;5010077;28;20049;-68
2021/11/09 08:23:31;;;;;;;30.45;12.20;;;7.70;86.70;;;;;;5008649;28;20065;-68
2021/11/09 08:25:57;;;;;;;27.23;11.43;;;7.90;86.20;;;;;;5007838;28;20460;-68
2021/11/09 08:28:23;;;;;;;29.70;12.90;;;8.00;86.10;;;;;;5009264;28;20034;-69
2021/11/09 08:30:52;;;;;;;27.77;13.13;;;8.10;85.40;;;;;;5014142;28;20083;-67
2021/11/09 08:33:20;;;;;;;31.85;13.18;;;8.30;85.10;;;;;;5009246;28;20042;-69
2021/11/09 08:35:46;;;;;;;30.73;12.52;;;8.60;84.50;;;;;;5007240;28;20037;-69
2021/11/09 08:38:12;;;;;;;23.90;11.68;;;8.70;83.50;;;;;;5011875;28;20037;-69
2021/11/09 08:40:39;;;;;;;23.27;11.88;;;8.80;83.00;;;;;;5010400;28;20038;-70
2021/11/09 08:43:05;;;;;;;26.90;11.02;;;8.90;83.10;;;;;;5009762;28;20050;-70
2021/11/09 08:45:51;;;;;;;28.25;11.07;;;9.10;82.60;;;;;;5006206;28;20057;-69
2021/11/09 08:48:18;;;;;;;26.98;11.00;;;9.10;82.20;;;;;;5009344;28;20117;-69
2021/11/09 08:50:48;;;;;;;25.98;11.35;;;9.20;81.60;;;;;;5011840;28;20030;-72
2021/11/09 08:53:21;;;;;;;28.85;11.60;;;9.20;81.40;;;;;;5011806;28;20537;-69
2021/11/09 09:04:20;;;;;;;26.05;10.63;;;9.10;81.80;;;;;;5007602;28;20042;-70
2021/11/09 09:06:50;;;;;;;32.00;12.07;;;9.00;81.90;;;;;;5008705;28;20057;-69
2021/11/09 09:09:16;;;;;;;27.30;11.27;;;9.10;82.10;;;;;;5012030;28;20034;-67
2021/11/09 09:11:43;;;;;;;26.25;11.20;;;9.20;81.80;;;;;;5025331;28;20031;-67
2021/11/09 09:14:09;;;;;;;29.42;11.63;;;9.30;81.70;;;;;;5007681;28;20045;-69
2021/11/09 09:16:36;;;;;;;27.75;10.75;;;9.30;81.30;;;;;;5008011;28;20397;-67
2021/11/09 09:19:05;;;;;;;25.48;10.95;;;9.30;81.40;;;;;;5010189;28;20058;-69
2021/11/09 09:21:43;;;;;;;25.85;10.93;;;9.20;81.60;;;;;;5007645;28;20038;-68
2021/11/09 09:24:18;;;;;;;25.60;11.30;;;9.30;81.40;;;;;;5008944;28;20038;-68
2021/11/09 09:56:19;;;;;;;26.92;9.60;;;10.90;77.10;;;;;;5008794;28;20092;-70
2021/11/09 09:58:46;;;;;;;20.67;9.60;;;11.00;77.20;;;;;;5010310;28;20517;-69
2021/11/09 10:01:12;;;;;;;20.88;8.73;;;11.30;77.00;;;;;;5010173;28;20501;-70
2021/11/09 10:03:41;;;;;;;22.00;8.95;;;11.40;75.50;;;;;;5008270;28;20038;-69
2021/11/09 10:06:08;;;;;;;19.65;9.70;;;11.30;75.60;;;;;;5009869;28;20060;-70
2021/11/09 10:08:47;;;;;;;22.90;8.70;;;11.30;76.00;;;;;;5007480;28;20042;-70
2021/11/09 10:11:36;;;;;;;21.45;9.95;;;11.20;75.60;;;;;;5004246;28;20026;-69
2021/11/09 10:14:08;;;;;;;21.35;8.82;;;11.20;75.90;;;;;;5006180;28;20034;-71
2021/11/09 10:16:38;;;;;;;18.98;9.00;;;11.10;75.80;;;;;;5008567;28;20030;-70
2021/11/09 10:19:04;;;;;;;22.00;10.18;;;11.10;76.70;;;;;;5007606;28;20128;-70
2021/11/09 10:21:40;;;;;;;24.30;9.07;;;11.10;76.90;;;;;;5008108;28;20034;-69
2021/11/09 10:24:27;;;;;;;20.05;9.30;;;11.10;76.80;;;;;;5007228;28;20036;-71
2021/11/09 10:26:54;;;;;;;20.90;8.85;;;11.10;77.00;;;;;;5007268;28;20042;-71
2021/11/09 10:29:39;;;;;;;17.77;8.70;;;11.20;76.80;;;;;;5008113;28;20038;-69
2021/11/09 10:32:19;;;;;;;24.95;9.63;;;11.20;77.00;;;;;;5008530;28;20516;-71
2021/11/09 10:34:46;;;;;;;23.35;9.57;;;11.20;76.70;;;;;;5008131;28;20061;-71
2021/11/09 10:37:29;;;;;;;22.95;9.45;;;11.20;76.30;;;;;;5021778;28;20113;-71
2021/11/09 10:40:05;;;;;;;27.83;9.60;;;11.10;76.30;;;;;;5006665;28;20488;-69
2021/11/09 10:42:32;;;;;;;18.92;8.48;;;11.10;76.40;;;;;;5007140;28;20042;-70
2021/11/09 10:45:02;;;;;;;23.27;8.98;;;11.10;76.60;;;;;;5005998;28;20034;-71
2021/11/09 10:47:34;;;;;;;18.85;8.90;;;11.20;75.80;;;;;;5006113;28;20040;-70
2021/11/09 10:50:01;;;;;;;24.45;10.05;;;11.30;76.20;;;;;;5003382;28;20029;-72
2021/11/09 10:52:37;;;;;;;23.13;9.07;;;11.30;76.00;;;;;;5004300;28;20037;-69
2021/11/09 10:55:18;;;;;;;28.30;9.77;;;11.40;75.90;;;;;;5005314;28;20049;-71
2021/11/09 11:06:13;;;;;;;20.27;8.65;;;11.50;76.00;;;;;;5011728;28;20038;-69
2021/11/09 11:08:40;;;;;;;20.17;9.23;;;11.50;76.20;;;;;;5006414;28;20531;-70
2021/11/09 11:11:30;;;;;;;18.30;9.25;;;11.60;75.70;;;;;;5007856;28;20060;-72
2021/11/09 11:14:10;;;;;;;17.95;8.18;;;11.60;75.80;;;;;;5002690;28;20037;-70
2021/11/09 11:16:52;;;;;;;32.30;9.35;;;11.70;76.30;;;;;;5006373;28;20061;-69
2021/11/09 11:19:19;;;;;;;23.95;8.55;;;11.70;75.80;;;;;;5008526;28;20057;-70
2021/11/09 11:21:46;;;;;;;19.50;8.27;;;11.80;75.80;;;;;;5004168;28;20493;-70
2021/11/09 11:24:14;;;;;;;16.85;7.78;;;11.90;75.70;;;;;;5005599;28;20133;-74
2021/11/09 11:26:44;;;;;;;20.30;9.07;;;12.10;75.30;;;;;;5007444;28;20033;-71
2021/11/09 11:29:14;;;;;;;23.63;8.80;;;12.30;75.10;;;;;;5007347;28;20054;-73
2021/11/09 11:31:40;;;;;;;21.63;9.05;;;12.30;74.60;;;;;;5005150;28;20486;-72
2021/11/09 11:34:05;;;;;;;19.45;8.30;;;12.10;74.50;;;;;;5004063;28;20042;-76
2021/11/09 11:36:31;;;;;;;19.88;8.88;;;12.10;74.90;;;;;;5007319;28;20034;-71
2021/11/09 11:39:03;;;;;;;22.58;8.68;;;12.20;74.90;;;;;;5006992;28;20136;-71
2021/11/09 11:41:38;;;;;;;20.25;7.90;;;12.30;74.90;;;;;;5001728;28;20026;-74
2021/11/09 11:44:07;;;;;;;21.17;7.72;;;12.50;74.40;;;;;;5003465;28;20045;-71
2021/11/09 11:46:32;;;;;;;19.17;7.82;;;12.50;74.20;;;;;;5007174;28;20061;-69
2021/11/09 11:49:10;;;;;;;23.10;8.73;;;12.60;73.60;;;;;;5005491;28;20104;-69
2021/11/09 11:51:40;;;;;;;22.27;8.90;;;12.60;73.40;;;;;;5004145;28;20033;-70
2021/11/09 11:54:07;;;;;;;23.70;8.70;;;12.60;74.00;;;;;;5006542;28;20132;-70
2021/11/09 11:56:39;;;;;;;21.63;8.48;;;12.50;73.70;;;;;;5011227;28;20038;-71
2021/11/09 11:59:06;;;;;;;18.13;8.85;;;12.60;74.50;;;;;;5007629;28;20033;-72
2021/11/09 12:01:39;;;;;;;20.83;8.80;;;12.60;73.80;;;;;;5009515;28;20061;-70
2021/11/09 12:04:08;;;;;;;19.60;8.65;;;12.60;73.60;;;;;;5007014;28;20107;-69
2021/11/09 12:06:51;;;;;;;22.48;9.02;;;12.60;73.50;;;;;;5006509;28;20503;-69
2021/11/09 12:09:35;;;;;;;21.35;9.00;;;12.70;73.40;;;;;;5008696;28;20037;-70
2021/11/09 12:12:19;;;;;;;20.35;8.90;;;12.60;73.50;;;;;;5007868;28;20381;-71
2021/11/09 12:14:46;;;;;;;22.73;9.18;;;12.60;73.80;;;;;;5007980;28;20120;-72
2021/11/09 12:17:13;;;;;;;22.23;8.38;;;12.60;73.80;;;;;;5009880;28;20026;-73
2021/11/09 12:19:46;;;;;;;21.75;8.73;;;12.70;73.70;;;;;;5009023;28;20449;-71
2021/11/09 12:22:13;;;;;;;21.85;9.18;;;12.80;73.70;;;;;;5008950;28;20026;-71
2021/11/09 12:25:10;;;;;;;21.17;8.40;;;12.80;73.00;;;;;;5011315;28;20037;-71
2021/11/09 12:27:57;;;;;;;20.65;8.50;;;12.80;73.60;;;;;;5004864;28;20121;-73
2021/11/09 12:30:38;;;;;;;22.63;9.32;;;12.90;73.00;;;;;;5007930;28;20118;-75
2021/11/09 12:33:16;;;;;;;21.17;8.57;;;13.00;72.90;;;;;;5012336;28;20519;-75
2021/11/09 12:36:02;;;;;;;19.25;8.63;;;13.00;73.20;;;;;;5009052;28;20041;-72
2021/11/09 12:38:45;;;;;;;16.48;7.68;;;12.90;72.80;;;;;;5015357;28;20034;-76
2021/11/09 12:41:15;;;;;;;18.02;7.90;;;13.00;72.80;;;;;;5006009;28;20034;-71
2021/11/09 12:43:50;;;;;;;19.60;7.75;;;12.90;72.50;;;;;;5011486;28;20044;-70
2021/11/09 12:46:33;;;;;;;20.90;7.95;;;12.90;72.50;;;;;;5026721;28;20057;-70
2021/11/09 12:49:11;;;;;;;21.70;8.85;;;13.00;72.90;;;;;;5001933;28;20030;-71
2021/11/09 12:51:43;;;;;;;17.67;7.93;;;13.00;73.40;;;;;;5003526;28;20121;-71
2021/11/09 12:54:18;;;;;;;22.83;9.15;;;12.90;73.30;;;;;;5008363;28;20077;-70
2021/11/09 12:56:45;;;;;;;20.23;8.82;;;13.00;73.30;;;;;;5009716;28;20026;-70
2021/11/09 12:59:29;;;;;;;22.98;9.38;;;13.00;73.80;;;;;;5010725;28;20469;-69
2021/11/09 13:04:31;;;;;;;23.55;9.15;;;12.80;73.40;;;;;;5010300;28;20172;-71
2021/11/09 13:09:46;;;;;;;21.75;9.27;;;13.00;73.60;;;;;;5009934;28;20026;-69
2021/11/09 13:12:32;;;;;;;27.23;9.77;;;13.10;73.10;;;;;;5006191;28;20117;-72
2021/11/09 13:15:04;;;;;;;20.73;8.93;;;13.10;72.90;;;;;;5007525;28;20041;-72
2021/11/09 13:17:39;;;;;;;21.25;7.55;;;13.20;72.40;;;;;;5006323;28;20038;-75
2021/11/09 13:20:23;;;;;;;17.98;7.90;;;13.30;71.40;;;;;;5008157;28;20080;-71
2021/11/09 13:23:05;;;;;;;22.27;8.50;;;13.30;71.90;;;;;;5003903;28;20062;-71
2021/11/09 13:25:40;;;;;;;20.40;7.63;;;13.30;71.30;;;;;;5017333;28;20462;-72
2021/11/09 13:28:12;;;;;;;18.48;7.90;;;13.20;71.70;;;;;;5009973;28;20360;-71
2021/11/09 13:30:39;;;;;;;17.85;7.68;;;13.20;72.10;;;;;;5018306;28;20038;-70
2021/11/09 13:33:07;;;;;;;24.60;8.77;;;13.10;71.70;;;;;;5023312;28;20489;-72
2021/11/09 13:35:39;;;;;;;21.77;9.07;;;13.10;72.10;;;;;;4999072;28;20049;-70
2021/11/09 13:38:10;;;;;;;21.17;8.00;;;13.00;72.10;;;;;;5012204;28;20038;-72
2021/11/09 13:40:38;;;;;;;31.77;10.20;;;12.90;72.20;;;;;;5010684;28;20049;-70
2021/11/09 13:43:07;;;;;;;19.77;7.78;;;12.90;72.50;;;;;;5007448;28;20121;-71
2021/11/09 13:45:35;;;;;;;21.60;9.32;;;13.00;72.80;;;;;;5006911;28;20052;-72
2021/11/09 13:48:08;;;;;;;24.00;8.90;;;12.90;72.60;;;;;;5006682;28;20164;-72
2021/11/09 13:50:34;;;;;;;20.73;7.77;;;12.90;72.80;;;;;;5009472;28;20385;-71
2021/11/09 13:53:00;;;;;;;18.83;7.72;;;13.00;72.90;;;;;;5008768;28;20291;-72
2021/11/09 13:55:26;;;;;;;23.15;7.93;;;13.00;72.70;;;;;;5009238;28;20040;-73
2021/11/09 13:57:52;;;;;;;23.20;8.32;;;12.90;72.50;;;;;;5009992;28;20033;-70
2021/11/09 14:00:27;;;;;;;19.95;7.68;;;13.00;72.50;;;;;;5010686;28;20021;-69
2021/11/09 14:03:35;;;;;;;22.75;8.23;;;13.00;73.00;;;;;;5013026;28;20038;-68
2021/11/09 14:14:18;;;;;;;20.95;7.97;;;13.00;73.30;;;;;;5010674;28;20084;-71
2021/11/09 14:16:52;;;;;;;20.77;8.05;;;13.00;73.20;;;;;;5007984;28;20042;-70
2021/11/09 14:19:40;;;;;;;17.23;7.73;;;12.90;73.60;;;;;;5006045;28;20494;-70
2021/11/09 14:22:15;;;;;;;24.35;8.27;;;13.00;73.60;;;;;;5002745;28;20773;-70
2021/11/09 14:24:41;;;;;;;;;;;13.00;72.80;;;;;;5029599;28;20060;-74
2021/11/09 14:27:14;;;;;;;19.25;7.57;;;12.90;73.00;;;;;;5004499;28;19935;-70
2021/11/09 14:29:55;;;;;;;26.27;7.97;;;12.90;73.20;;;;;;5008152;28;20046;-73
2021/11/09 14:32:23;;;;;;;22.77;7.32;;;12.80;73.10;;;;;;5008308;28;20042;-72
2021/11/09 14:35:08;;;;;;;18.20;7.90;;;12.70;73.20;;;;;;5010256;28;20046;-72
2021/11/09 14:37:54;;;;;;;25.00;7.95;;;12.80;74.00;;;;;;5001202;28;20034;-73
2021/11/09 14:41:13;;;;;;;19.63;8.18;;;12.70;73.90;;;;;;5009280;28;20042;-70
2021/11/09 14:43:39;;;;;;;22.23;7.28;;;12.70;74.10;;;;;;5006000;28;20030;-71
2021/11/09 14:46:11;;;;;;;21.70;8.25;;;12.70;74.40;;;;;;5007724;28;20429;-71
2021/11/09 14:53:43;;;;;;;17.65;6.93;;;12.70;74.70;;;;;;5007213;28;20156;-70
2021/11/09 14:56:13;;;;;;;24.05;7.63;;;12.60;75.40;;;;;;5007118;28;20057;-74
2021/11/09 14:58:52;;;;;;;23.70;7.25;;;12.60;75.70;;;;;;5007902;28;20030;-71
2021/11/09 15:01:47;;;;;;;21.15;7.80;;;12.60;75.80;;;;;;5002757;28;20033;-71
2021/11/09 15:04:22;;;;;;;21.02;8.35;;;12.60;75.90;;;;;;5025834;28;20033;-72
2021/11/09 15:07:00;;;;;;;19.20;7.72;;;12.60;75.90;;;;;;5007578;28;20042;-69
2021/11/09 15:12:07;;;;;;;20.92;9.18;;;12.50;75.90;;;;;;5007245;28;20450;-70
2021/11/09 15:30:43;;;;;;;26.52;8.05;;;12.40;76.50;;;;;;5007597;28;20112;-72
2021/11/09 15:33:19;;;;;;;22.92;8.18;;;12.30;76.10;;;;;;5012310;28;20037;-70
2021/11/09 15:36:07;;;;;;;23.10;7.88;;;12.30;76.00;;;;;;5008077;28;20088;-71
2021/11/09 15:38:30;;;;;;;20.15;7.20;;;12.30;75.90;;;;;;5009770;28;20038;-71
2021/11/09 15:40:56;;;;;;;24.48;7.63;;;12.20;75.30;;;;;;5006042;28;20966;-69
2021/11/09 15:43:22;;;;;;;26.20;7.55;;;12.20;75.30;;;;;;5006525;28;20042;-70
2021/11/09 15:45:48;;;;;;;22.77;7.93;;;12.10;75.70;;;;;;5013052;28;20030;-69
2021/11/09 15:48:14;;;;;;;19.70;7.05;;;12.10;76.00;;;;;;5006569;28;20414;-70
2021/11/09 15:50:40;;;;;;;32.08;8.40;;;12.10;76.20;;;;;;5008167;28;20064;-71
2021/11/09 15:53:06;;;;;;;20.85;8.25;;;12.00;76.40;;;;;;5024600;28;20385;-71